Time;durP1;ratioP1;P1;durP2;ratioP2;P2;SDS_P1;SDS_P2;PMS_P1;PMS_P2;Temp;Humidity;BMP_temperature;BMP_pressure;BME280_temperature;BME280_humidity;BME280_pressure;Samples;Min_cycle;Max_cycle;Signal;HPM_P1;HPM_P2
2021/08/09 00:00:58;;;;;;;17.90;10.10;;;;;;;;;;755079;182;921668;-66
2021/08/09 00:03:23;;;;;;;22.00;12.80;;;;;;;;;;755926;183;919546;-65
2021/08/09 00:05:49;;;;;;;26.23;14.87;;;;;;;;;;760308;183;919761;-64
2021/08/09 00:08:15;;;;;;;20.33;13.50;;;;;;;;;;755080;183;919258;-65
2021/08/09 00:10:41;;;;;;;22.47;15.67;;;;;;;;;;754346;183;944510;-65
2021/08/09 00:13:07;;;;;;;18.47;14.17;;;;;;;;;;760317;183;919898;-65
2021/08/09 00:15:33;;;;;;;21.60;12.97;;;;;;;;;;754124;183;919551;-65
2021/08/09 00:17:59;;;;;;;23.60;12.70;;;;;;;;;;754633;183;925014;-65
2021/08/09 00:20:25;;;;;;;21.60;13.77;;;;;;;;;;755293;183;919378;-65
2021/08/09 00:22:51;;;;;;;20.27;13.53;;;;;;;;;;762250;182;1021466;-65
2021/08/09 00:25:17;;;;;;;24.13;15.70;;;;;;;;;;754933;183;919660;-65
2021/08/09 00:27:43;;;;;;;72.80;15.90;;;;;;;;;;753467;184;920397;-65
2021/08/09 00:30:09;;;;;;;17.10;12.97;;;;;;;;;;760241;184;919780;-65
2021/08/09 00:32:35;;;;;;;21.40;13.37;;;;;;;;;;754412;184;922855;-66
2021/08/09 00:35:01;;;;;;;19.00;12.20;;;;;;;;;;754921;184;925995;-67
2021/08/09 00:37:27;;;;;;;23.20;14.43;;;;;;;;;;759978;184;918540;-65
2021/08/09 00:39:52;;;;;;;29.00;15.60;;;;;;;;;;755870;181;920787;-65
2021/08/09 00:42:18;;;;;;;31.80;17.30;;;;;;;;;;754562;184;919590;-65
2021/08/09 00:44:44;;;;;;;37.10;19.47;;;;;;;;;;753682;185;918997;-65
2021/08/09 00:47:11;;;;;;;58.70;19.30;;;;;;;;;;754941;184;919723;-65
2021/08/09 00:49:36;;;;;;;51.07;19.40;;;;;;;;;;754036;184;918450;-65
2021/08/09 00:52:02;;;;;;;43.33;19.17;;;;;;;;;;754881;184;919270;-65
2021/08/09 00:54:28;;;;;;;25.43;14.50;;;;;;;;;;758663;184;919924;-66
2021/08/09 00:56:54;;;;;;;28.47;16.13;;;;;;;;;;754574;183;920183;-65
2021/08/09 00:59:20;;;;;;;22.50;13.40;;;;;;;;;;753855;184;919361;-65
2021/08/09 01:01:46;;;;;;;22.90;13.20;;;;;;;;;;760336;180;922442;-66
2021/08/09 01:04:12;;;;;;;17.83;11.50;;;;;;;;;;758211;183;914874;-65
2021/08/09 01:06:38;;;;;;;19.00;12.37;;;;;;;;;;757783;183;919658;-65
2021/08/09 01:09:21;;;;;;;19.87;11.53;;;;;;;;;;754554;183;1095628;-65
2021/08/09 01:11:47;;;;;;;16.07;11.70;;;;;;;;;;746664;183;920741;-67
2021/08/09 01:14:17;;;;;;;18.43;11.57;;;;;;;;;;756739;184;918747;-67
2021/08/09 01:16:44;;;;;;;17.13;11.47;;;;;;;;;;752969;182;922756;-66
2021/08/09 01:19:12;;;;;;;16.17;9.73;;;;;;;;;;754181;184;920795;-67
2021/08/09 01:21:38;;;;;;;26.33;10.03;;;;;;;;;;758724;183;919358;-66
2021/08/09 01:24:06;;;;;;;25.73;10.60;;;;;;;;;;754411;182;920352;-67
2021/08/09 01:26:35;;;;;;;20.80;9.83;;;;;;;;;;755077;183;919169;-67
2021/08/09 01:28:58;;;;;;;23.13;9.60;;;;;;;;;;753209;184;916516;-67
2021/08/09 01:31:24;;;;;;;214.27;17.10;;;;;;;;;;759546;182;916325;-67
2021/08/09 01:33:50;;;;;;;82.33;10.43;;;;;;;;;;756002;181;918989;-68
2021/08/09 01:36:15;;;;;;;15.47;8.33;;;;;;;;;;754964;181;919444;-67
2021/08/09 01:38:42;;;;;;;318.13;20.07;;;;;;;;;;758077;184;916170;-66
2021/08/09 01:41:07;;;;;;;50.17;10.30;;;;;;;;;;754519;184;919979;-67
2021/08/09 01:43:33;;;;;;;25.23;7.10;;;;;;;;;;753978;184;915611;-67
2021/08/09 01:45:59;;;;;;;89.00;11.30;;;;;;;;;;758770;184;982376;-67
2021/08/09 01:48:25;;;;;;;23.57;7.63;;;;;;;;;;756563;184;919683;-67
2021/08/09 01:50:51;;;;;;;51.63;8.23;;;;;;;;;;756468;184;919564;-67
2021/08/09 01:53:17;;;;;;;23.80;6.73;;;;;;;;;;754483;181;919958;-66
2021/08/09 01:55:43;;;;;;;86.70;10.30;;;;;;;;;;760162;184;919411;-67
2021/08/09 01:58:09;;;;;;;14.43;5.43;;;;;;;;;;754058;184;919141;-67
2021/08/09 02:00:34;;;;;;;17.42;7.95;;;;;;;;;;754932;184;919462;-67
2021/08/09 02:03:00;;;;;;;16.07;6.50;;;;;;;;;;759762;182;920226;-66
2021/08/09 02:05:26;;;;;;;63.77;9.53;;;;;;;;;;754704;184;919069;-67
2021/08/09 02:07:52;;;;;;;44.93;10.17;;;;;;;;;;752913;184;919893;-68
2021/08/09 02:10:19;;;;;;;55.20;9.60;;;;;;;;;;760361;184;918603;-67
2021/08/09 02:12:45;;;;;;;62.50;11.37;;;;;;;;;;753921;184;919655;-67
2021/08/09 02:15:10;;;;;;;13.57;8.30;;;;;;;;;;755199;183;919604;-67
2021/08/09 02:17:38;;;;;;;21.60;6.93;;;;;;;;;;754886;183;919356;-66
2021/08/09 02:20:03;;;;;;;9.97;6.20;;;;;;;;;;761184;182;918932;-68
2021/08/09 02:22:32;;;;;;;12.13;7.33;;;;;;;;;;755499;183;917478;-68
2021/08/09 02:25:02;;;;;;;11.73;7.23;;;;;;;;;;756123;183;920054;-68
2021/08/09 02:27:27;;;;;;;10.97;7.20;;;;;;;;;;759008;184;919078;-68
2021/08/09 02:29:53;;;;;;;11.87;7.77;;;;;;;;;;749193;183;919223;-68
2021/08/09 02:32:19;;;;;;;15.80;7.00;;;;;;;;;;754324;183;919375;-68
2021/08/09 02:34:45;;;;;;;16.30;7.70;;;;;;;;;;753409;183;934399;-67
2021/08/09 02:37:11;;;;;;;57.33;8.70;;;;;;;;;;760218;183;919279;-68
2021/08/09 02:39:37;;;;;;;40.60;7.90;;;;;;;;;;754895;183;918818;-68
2021/08/09 02:42:02;;;;;;;15.00;7.13;;;;;;;;;;755012;183;919192;-67
2021/08/09 02:44:28;;;;;;;8.50;6.70;;;;;;;;;;760194;183;943635;-67
2021/08/09 02:46:54;;;;;;;17.25;6.62;;;;;;;;;;756353;183;918861;-68
2021/08/09 02:49:20;;;;;;;9.57;6.30;;;;;;;;;;753035;184;923074;-68
2021/08/09 02:51:46;;;;;;;10.73;6.17;;;;;;;;;;757986;184;1022891;-68
2021/08/09 02:54:12;;;;;;;13.00;6.30;;;;;;;;;;754723;182;919563;-68
2021/08/09 02:56:37;;;;;;;10.70;6.77;;;;;;;;;;753148;184;924942;-68
2021/08/09 02:59:03;;;;;;;11.10;6.93;;;;;;;;;;752972;184;920043;-68
2021/08/09 03:01:29;;;;;;;14.37;6.23;;;;;;;;;;761443;183;919549;-68
2021/08/09 03:03:57;;;;;;;18.80;8.00;;;;;;;;;;753020;184;919775;-70
2021/08/09 03:06:22;;;;;;;11.13;5.83;;;;;;;;;;753887;184;919392;-68
2021/08/09 03:08:47;;;;;;;26.43;7.80;;;;;;;;;;759985;184;918600;-68
2021/08/09 03:11:13;;;;;;;13.80;6.33;;;;;;;;;;755844;184;921873;-69
2021/08/09 03:13:39;;;;;;;26.53;6.17;;;;;;;;;;754633;184;919487;-67
2021/08/09 03:16:05;;;;;;;7.27;5.50;;;;;;;;;;758455;184;919543;-67
2021/08/09 03:18:34;;;;;;;12.03;3.97;;;;;;;;;;752423;184;930641;-67
2021/08/09 03:20:58;;;;;;;16.97;5.00;;;;;;;;;;754822;184;917742;-66
2021/08/09 03:23:24;;;;;;;10.43;4.90;;;;;;;;;;754411;183;919139;-66
2021/08/09 03:25:50;;;;;;;25.93;5.80;;;;;;;;;;764987;180;919109;-67
2021/08/09 03:28:16;;;;;;;11.60;5.90;;;;;;;;;;755292;183;919609;-66
2021/08/09 03:30:42;;;;;;;31.37;7.47;;;;;;;;;;755253;184;919332;-66
2021/08/09 03:33:08;;;;;;;39.30;6.80;;;;;;;;;;760141;181;919863;-66
2021/08/09 03:35:33;;;;;;;67.20;10.00;;;;;;;;;;756101;183;920781;-66
2021/08/09 03:37:59;;;;;;;60.00;9.43;;;;;;;;;;756505;181;917823;-66
2021/08/09 03:40:25;;;;;;;46.10;10.17;;;;;;;;;;759736;184;919378;-66
2021/08/09 03:42:53;;;;;;;15.53;8.10;;;;;;;;;;756514;183;918220;-67
2021/08/09 03:45:17;;;;;;;27.80;8.90;;;;;;;;;;754912;184;919684;-66
2021/08/09 03:47:43;;;;;;;24.87;7.72;;;;;;;;;;760542;183;919252;-66
2021/08/09 03:50:09;;;;;;;22.30;6.50;;;;;;;;;;754373;183;918860;-66
2021/08/09 03:52:35;;;;;;;16.03;7.30;;;;;;;;;;753591;182;922075;-66
2021/08/09 03:55:01;;;;;;;8.70;6.23;;;;;;;;;;753130;183;919331;-66
2021/08/09 03:57:27;;;;;;;13.00;5.73;;;;;;;;;;760639;183;918806;-67
2021/08/09 03:59:53;;;;;;;22.27;8.13;;;;;;;;;;754600;181;919499;-66
2021/08/09 04:02:19;;;;;;;14.20;7.00;;;;;;;;;;753926;184;918567;-66
2021/08/09 04:04:44;;;;;;;14.67;6.60;;;;;;;;;;758629;184;924799;-66
2021/08/09 04:07:10;;;;;;;14.83;6.20;;;;;;;;;;756191;181;922531;-66
2021/08/09 04:09:36;;;;;;;31.60;7.77;;;;;;;;;;754226;185;1020782;-66
2021/08/09 04:12:02;;;;;;;34.83;7.30;;;;;;;;;;760079;184;918971;-66
2021/08/09 04:14:28;;;;;;;46.87;7.33;;;;;;;;;;755372;184;918990;-66
2021/08/09 04:16:54;;;;;;;30.30;6.70;;;;;;;;;;754921;184;921702;-66
2021/08/09 04:19:19;;;;;;;15.73;6.47;;;;;;;;;;754173;184;917791;-65
2021/08/09 04:21:45;;;;;;;9.67;6.30;;;;;;;;;;759782;184;921493;-66
2021/08/09 04:24:11;;;;;;;10.40;6.50;;;;;;;;;;753484;184;919485;-66
2021/08/09 04:26:37;;;;;;;10.48;6.95;;;;;;;;;;754240;184;920254;-66
2021/08/09 04:29:03;;;;;;;14.47;7.17;;;;;;;;;;759586;181;919417;-66
2021/08/09 04:31:29;;;;;;;12.17;7.83;;;;;;;;;;756375;184;918241;-67
2021/08/09 04:33:54;;;;;;;18.92;8.02;;;;;;;;;;754419;183;912747;-66
2021/08/09 04:36:20;;;;;;;20.93;10.30;;;;;;;;;;760361;182;911882;-66
2021/08/09 04:38:46;;;;;;;16.63;8.77;;;;;;;;;;756910;183;913150;-67
2021/08/09 04:41:12;;;;;;;19.03;9.13;;;;;;;;;;755468;183;912673;-66
2021/08/09 04:43:38;;;;;;;22.77;9.00;;;;;;;;;;754654;183;919107;-66
2021/08/09 04:46:04;;;;;;;23.47;8.43;;;;;;;;;;761538;182;911284;-66
2021/08/09 04:48:29;;;;;;;17.10;9.27;;;;;;;;;;754205;183;919028;-66
2021/08/09 04:50:55;;;;;;;19.13;10.90;;;;;;;;;;753670;184;918866;-66
2021/08/09 04:53:21;;;;;;;17.10;10.60;;;;;;;;;;760180;183;918610;-66
2021/08/09 04:55:47;;;;;;;22.77;10.00;;;;;;;;;;754982;183;919293;-66
2021/08/09 04:58:13;;;;;;;14.77;10.33;;;;;;;;;;753722;182;919478;-64
2021/08/09 05:00:39;;;;;;;28.80;14.47;;;;;;;;;;759917;183;918600;-65
2021/08/09 05:03:05;;;;;;;23.83;14.37;;;;;;;;;;754443;183;919251;-65
2021/08/09 05:05:30;;;;;;;33.30;14.97;;;;;;;;;;754811;183;918929;-65
2021/08/09 05:07:56;;;;;;;39.90;17.43;;;;;;;;;;759408;183;918768;-65
2021/08/09 05:10:22;;;;;;;193.30;21.08;;;;;;;;;;753784;183;919007;-65
2021/08/09 05:12:48;;;;;;;144.40;20.10;;;;;;;;;;753011;184;918926;-67
2021/08/09 05:15:14;;;;;;;118.20;17.87;;;;;;;;;;753949;184;919167;-64
2021/08/09 05:17:40;;;;;;;106.90;17.63;;;;;;;;;;760015;183;1020338;-65
2021/08/09 05:20:06;;;;;;;89.00;16.97;;;;;;;;;;754895;184;919580;-65
2021/08/09 05:22:32;;;;;;;105.80;17.23;;;;;;;;;;753436;184;919372;-65
2021/08/09 05:24:58;;;;;;;58.73;14.30;;;;;;;;;;759540;181;919900;-64
2021/08/09 05:27:23;;;;;;;61.60;16.27;;;;;;;;;;755971;183;1022277;-65
2021/08/09 05:29:49;;;;;;;88.93;16.20;;;;;;;;;;754585;184;919239;-65
2021/08/09 05:32:15;;;;;;;69.47;14.27;;;;;;;;;;757974;184;919738;-64
2021/08/09 05:34:45;;;;;;;71.50;13.70;;;;;;;;;;756668;184;918344;-64
2021/08/09 05:37:08;;;;;;;29.67;12.80;;;;;;;;;;753087;184;922628;-64
2021/08/09 05:39:34;;;;;;;51.07;13.80;;;;;;;;;;752643;183;920030;-65
2021/08/09 05:42:00;;;;;;;28.60;12.30;;;;;;;;;;755088;184;1634145;-65
2021/08/09 05:44:25;;;;;;;57.27;15.00;;;;;;;;;;755600;184;919158;-63
2021/08/09 05:46:51;;;;;;;62.93;11.90;;;;;;;;;;754991;184;918626;-64
2021/08/09 05:49:17;;;;;;;72.97;16.57;;;;;;;;;;762169;183;892970;-64
2021/08/09 05:51:43;;;;;;;87.47;14.23;;;;;;;;;;758429;183;916748;-64
2021/08/09 05:54:09;;;;;;;63.20;12.63;;;;;;;;;;761912;183;640126;-64
2021/08/09 05:56:35;;;;;;;34.53;12.10;;;;;;;;;;761237;181;918724;-64
2021/08/09 05:59:01;;;;;;;57.40;14.20;;;;;;;;;;754094;183;928230;-65
2021/08/09 06:01:26;;;;;;;79.30;15.20;;;;;;;;;;753881;183;920023;-65
2021/08/09 06:03:52;;;;;;;65.70;15.13;;;;;;;;;;755337;181;919346;-64
2021/08/09 06:06:18;;;;;;;57.43;14.90;;;;;;;;;;754191;183;920011;-64
2021/08/09 06:08:44;;;;;;;61.10;14.53;;;;;;;;;;758782;183;625046;-64
2021/08/09 06:11:10;;;;;;;68.57;16.43;;;;;;;;;;758471;183;617558;-64
2021/08/09 06:13:36;;;;;;;58.37;16.33;;;;;;;;;;762955;181;648564;-63
2021/08/09 06:16:01;;;;;;;40.73;12.73;;;;;;;;;;757300;183;919334;-63
2021/08/09 06:18:27;;;;;;;22.63;12.77;;;;;;;;;;754950;183;923176;-63
2021/08/09 06:20:53;;;;;;;25.73;13.07;;;;;;;;;;758775;183;918774;-63
2021/08/09 06:23:19;;;;;;;26.30;14.67;;;;;;;;;;754315;184;920070;-63
2021/08/09 06:25:45;;;;;;;21.13;14.50;;;;;;;;;;753620;184;918643;-62
2021/08/09 06:28:11;;;;;;;21.90;13.90;;;;;;;;;;758375;184;918012;-63
2021/08/09 06:30:36;;;;;;;21.30;12.97;;;;;;;;;;752684;184;920718;-63
2021/08/09 06:33:04;;;;;;;20.10;12.50;;;;;;;;;;753069;184;918558;-62
2021/08/09 06:35:31;;;;;;;22.17;14.73;;;;;;;;;;752614;184;919421;-63
2021/08/09 06:37:55;;;;;;;23.07;14.40;;;;;;;;;;759535;184;907968;-62
2021/08/09 06:40:21;;;;;;;19.90;13.20;;;;;;;;;;755340;184;919786;-63
2021/08/09 06:42:47;;;;;;;19.47;12.97;;;;;;;;;;754679;184;918433;-62
2021/08/09 06:45:13;;;;;;;16.23;12.80;;;;;;;;;;759741;184;918877;-62
2021/08/09 06:47:39;;;;;;;15.80;12.17;;;;;;;;;;754190;184;919316;-62
2021/08/09 06:50:05;;;;;;;16.17;11.40;;;;;;;;;;755932;184;919575;-63
2021/08/09 06:52:32;;;;;;;14.40;11.60;;;;;;;;;;758726;184;919058;-63
2021/08/09 06:54:59;;;;;;;14.87;9.37;;;;;;;;;;758787;184;918294;-62
2021/08/09 06:57:24;;;;;;;13.53;12.03;;;;;;;;;;752847;184;918628;-62
2021/08/09 06:59:49;;;;;;;14.27;10.10;;;;;;;;;;756081;183;919231;-63
2021/08/09 07:02:15;;;;;;;16.80;11.67;;;;;;;;;;764199;183;919595;-62
2021/08/09 07:04:41;;;;;;;11.77;9.15;;;;;;;;;;758268;182;919001;-62
2021/08/09 07:07:07;;;;;;;12.53;9.33;;;;;;;;;;755969;183;918710;-63
2021/08/09 07:09:33;;;;;;;10.10;8.40;;;;;;;;;;759760;181;917995;-64
2021/08/09 07:11:59;;;;;;;8.97;8.07;;;;;;;;;;755221;183;918690;-62
2021/08/09 07:14:24;;;;;;;12.23;10.00;;;;;;;;;;756686;181;918987;-62
2021/08/09 07:16:50;;;;;;;10.63;8.02;;;;;;;;;;759384;184;919808;-65
2021/08/09 07:19:16;;;;;;;13.13;9.30;;;;;;;;;;753057;183;918716;-62
2021/08/09 07:21:42;;;;;;;10.60;9.03;;;;;;;;;;754307;181;919836;-63
2021/08/09 07:24:08;;;;;;;9.93;8.77;;;;;;;;;;755369;183;1020884;-62
2021/08/09 07:26:34;;;;;;;13.07;9.73;;;;;;;;;;759783;183;919021;-63
2021/08/09 07:29:00;;;;;;;11.03;7.50;;;;;;;;;;755629;183;920186;-64
2021/08/09 07:31:25;;;;;;;14.43;9.27;;;;;;;;;;754687;183;920079;-63
2021/08/09 07:33:51;;;;;;;12.00;9.10;;;;;;;;;;759519;184;919136;-63
2021/08/09 07:36:17;;;;;;;9.20;7.20;;;;;;;;;;755612;184;920051;-62
2021/08/09 07:38:43;;;;;;;10.43;6.30;;;;;;;;;;752747;184;919324;-63
2021/08/09 07:41:09;;;;;;;9.55;8.23;;;;;;;;;;755357;182;1020186;-63
2021/08/09 07:43:35;;;;;;;11.90;9.10;;;;;;;;;;754230;183;919977;-63
2021/08/09 07:46:00;;;;;;;8.30;6.87;;;;;;;;;;752907;184;918948;-62
2021/08/09 07:48:26;;;;;;;8.50;6.60;;;;;;;;;;753698;184;923364;-62
2021/08/09 07:50:52;;;;;;;12.83;6.40;;;;;;;;;;754093;182;919159;-62
2021/08/09 07:53:18;;;;;;;8.00;6.60;;;;;;;;;;754187;184;920156;-62
2021/08/09 07:55:44;;;;;;;6.43;5.23;;;;;;;;;;752805;184;919309;-61
2021/08/09 07:58:10;;;;;;;5.07;4.27;;;;;;;;;;759310;184;919233;-62
2021/08/09 08:00:35;;;;;;;5.27;4.10;;;;;;;;;;754380;181;918368;-62
2021/08/09 08:03:01;;;;;;;5.90;4.20;;;;;;;;;;754615;184;925678;-62
2021/08/09 08:05:27;;;;;;;6.20;4.10;;;;;;;;;;758530;184;918768;-61
2021/08/09 08:07:53;;;;;;;4.30;3.90;;;;;;;;;;754847;184;918477;-62
2021/08/09 08:10:19;;;;;;;5.90;4.80;;;;;;;;;;755760;181;918822;-62
2021/08/09 08:12:45;;;;;;;4.90;4.40;;;;;;;;;;760951;184;918030;-62
2021/08/09 08:15:10;;;;;;;7.80;4.60;;;;;;;;;;754908;183;919057;-63
2021/08/09 08:17:36;;;;;;;5.28;4.25;;;;;;;;;;755412;183;919276;-62
2021/08/09 08:20:03;;;;;;;9.03;3.77;;;;;;;;;;754444;183;919741;-63
2021/08/09 08:22:28;;;;;;;8.53;4.83;;;;;;;;;;759513;183;920191;-63
2021/08/09 08:24:54;;;;;;;8.10;5.03;;;;;;;;;;756705;181;917929;-63
2021/08/09 08:27:20;;;;;;;6.30;4.50;;;;;;;;;;755514;183;921752;-61
2021/08/09 08:29:46;;;;;;;8.73;4.17;;;;;;;;;;760382;183;918619;-61
2021/08/09 08:32:12;;;;;;;6.47;3.80;;;;;;;;;;755257;183;930998;-61
2021/08/09 08:34:37;;;;;;;5.77;3.83;;;;;;;;;;754240;184;919781;-61
2021/08/09 08:37:03;;;;;;;6.00;4.07;;;;;;;;;;758745;183;918909;-61
2021/08/09 08:39:29;;;;;;;5.07;4.03;;;;;;;;;;752973;181;919571;-62
2021/08/09 08:41:56;;;;;;;7.50;4.03;;;;;;;;;;754044;183;919213;-62
2021/08/09 08:44:21;;;;;;;5.67;3.50;;;;;;;;;;753864;184;919545;-60
2021/08/09 08:46:47;;;;;;;4.70;3.53;;;;;;;;;;761527;181;916569;-61
2021/08/09 08:49:15;;;;;;;3.83;3.00;;;;;;;;;;753179;184;920770;-62
2021/08/09 08:51:42;;;;;;;7.23;4.17;;;;;;;;;;754446;184;920218;-62
2021/08/09 08:54:07;;;;;;;4.00;2.70;;;;;;;;;;759083;181;918328;-61
2021/08/09 08:56:37;;;;;;;3.07;2.53;;;;;;;;;;754718;184;917950;-63
2021/08/09 08:59:02;;;;;;;3.15;2.10;;;;;;;;;;754770;185;919686;-62
2021/08/09 09:01:34;;;;;;;4.85;2.20;;;;;;;;;;754208;184;916305;-62
2021/08/09 09:04:00;;;;;;;4.20;2.00;;;;;;;;;;749624;184;922036;-62
2021/08/09 09:06:25;;;;;;;9.57;2.80;;;;;;;;;;753248;184;911440;-63
2021/08/09 09:08:51;;;;;;;4.43;1.60;;;;;;;;;;753751;184;923522;-62
2021/08/09 09:11:38;;;;;;;3.40;2.23;;;;;;;;;;759855;184;913824;-63
2021/08/09 09:14:04;;;;;;;3.45;1.90;;;;;;;;;;755510;184;916718;-61
2021/08/09 09:16:45;;;;;;;3.47;2.00;;;;;;;;;;762513;183;914774;-62
2021/08/09 09:19:11;;;;;;;3.77;2.10;;;;;;;;;;752870;181;915214;-64
2021/08/09 09:21:36;;;;;;;5.43;2.37;;;;;;;;;;754106;184;920062;-62
2021/08/09 09:24:08;;;;;;;2.90;2.10;;;;;;;;;;754062;182;1039686;-61
2021/08/09 09:26:34;;;;;;;3.50;2.40;;;;;;;;;;761903;183;918062;-63
2021/08/09 09:29:17;;;;;;;4.30;2.00;;;;;;;;;;757122;183;919441;-62
2021/08/09 09:31:42;;;;;;;5.33;2.30;;;;;;;;;;755187;183;920124;-63
2021/08/09 09:34:09;;;;;;;3.03;2.00;;;;;;;;;;756238;183;919558;-63
2021/08/09 09:36:41;;;;;;;2.97;2.00;;;;;;;;;;759547;182;918436;-62
2021/08/09 09:39:07;;;;;;;7.20;3.10;;;;;;;;;;754980;184;928048;-63
2021/08/09 09:41:33;;;;;;;3.40;2.13;;;;;;;;;;752980;183;922442;-63
2021/08/09 09:43:58;;;;;;;4.40;2.50;;;;;;;;;;752985;183;919329;-63
2021/08/09 09:46:25;;;;;;;3.92;2.90;;;;;;;;;;758969;183;918897;-63
2021/08/09 09:48:55;;;;;;;4.50;2.30;;;;;;;;;;753574;183;1078750;-64
2021/08/09 09:51:17;;;;;;;3.08;1.80;;;;;;;;;;753915;181;924896;-61
2021/08/09 09:53:43;;;;;;;3.10;2.30;;;;;;;;;;760430;181;919362;-64
2021/08/09 09:56:08;;;;;;;4.27;2.50;;;;;;;;;;755669;182;918605;-63
2021/08/09 09:58:34;;;;;;;3.70;2.00;;;;;;;;;;754999;184;921268;-63
2021/08/09 10:01:00;;;;;;;3.33;2.37;;;;;;;;;;753059;184;919838;-64
2021/08/09 10:03:26;;;;;;;2.90;1.90;;;;;;;;;;758581;184;919912;-64
2021/08/09 10:05:52;;;;;;;7.63;2.20;;;;;;;;;;753392;184;918669;-64
2021/08/09 10:08:18;;;;;;;3.63;1.70;;;;;;;;;;752764;183;919600;-64
2021/08/09 10:10:46;;;;;;;4.00;2.50;;;;;;;;;;758646;184;919563;-63
2021/08/09 10:13:12;;;;;;;3.43;2.20;;;;;;;;;;756253;184;919269;-63
2021/08/09 10:15:38;;;;;;;4.67;2.00;;;;;;;;;;752431;184;919436;-63
2021/08/09 10:18:05;;;;;;;3.10;1.80;;;;;;;;;;755754;184;1018010;-63
2021/08/09 10:20:31;;;;;;;5.10;1.80;;;;;;;;;;757214;183;919133;-62
2021/08/09 10:22:56;;;;;;;5.87;2.00;;;;;;;;;;752753;184;918045;-64
2021/08/09 10:25:28;;;;;;;3.90;2.20;;;;;;;;;;752927;182;916263;-62
2021/08/09 10:27:56;;;;;;;5.23;2.30;;;;;;;;;;760408;182;912797;-63
2021/08/09 10:30:20;;;;;;;3.00;1.90;;;;;;;;;;754591;184;909156;-64
2021/08/09 10:32:46;;;;;;;6.90;2.80;;;;;;;;;;755246;183;920068;-63
2021/08/09 10:35:30;;;;;;;5.12;1.80;;;;;;;;;;757617;183;915172;-62
2021/08/09 10:38:02;;;;;;;5.40;2.33;;;;;;;;;;747602;183;1250318;-62
2021/08/09 10:40:28;;;;;;;5.30;2.00;;;;;;;;;;763820;180;912262;-64
2021/08/09 10:42:57;;;;;;;4.60;1.70;;;;;;;;;;754222;181;917664;-62
2021/08/09 10:45:29;;;;;;;3.57;1.90;;;;;;;;;;754164;183;920182;-64
2021/08/09 10:47:55;;;;;;;4.13;2.37;;;;;;;;;;753486;183;1017065;-63
2021/08/09 10:50:40;;;;;;;2.90;1.83;;;;;;;;;;759951;183;914804;-63
2021/08/09 10:53:20;;;;;;;3.17;1.90;;;;;;;;;;756491;183;915180;-65
2021/08/09 10:55:46;;;;;;;4.50;2.03;;;;;;;;;;755053;183;919183;-64
2021/08/09 10:58:12;;;;;;;3.80;1.90;;;;;;;;;;754452;183;916943;-64
2021/08/09 11:00:53;;;;;;;3.03;1.80;;;;;;;;;;753306;184;919799;-64
2021/08/09 11:03:20;;;;;;;3.13;1.73;;;;;;;;;;753980;182;918771;-64
2021/08/09 11:05:45;;;;;;;4.43;1.87;;;;;;;;;;760034;183;921707;-64
2021/08/09 11:08:29;;;;;;;2.37;1.73;;;;;;;;;;753752;181;920969;-62
2021/08/09 11:10:57;;;;;;;6.20;1.80;;;;;;;;;;754590;184;919200;-64
2021/08/09 11:13:23;;;;;;;3.40;1.80;;;;;;;;;;756019;184;919093;-63
2021/08/09 11:16:06;;;;;;;4.10;2.00;;;;;;;;;;752952;181;919177;-63
2021/08/09 11:18:31;;;;;;;3.17;1.73;;;;;;;;;;753941;184;919164;-63
2021/08/09 11:21:02;;;;;;;4.80;2.70;;;;;;;;;;758893;184;922973;-63
2021/08/09 11:23:27;;;;;;;3.70;1.70;;;;;;;;;;756141;184;918629;-61
2021/08/09 11:25:53;;;;;;;2.97;1.90;;;;;;;;;;753600;184;919773;-64
2021/08/09 11:28:23;;;;;;;2.83;1.70;;;;;;;;;;759040;184;919929;-62
2021/08/09 11:30:48;;;;;;;4.37;1.90;;;;;;;;;;753515;184;915908;-62
2021/08/09 11:33:19;;;;;;;3.37;1.70;;;;;;;;;;752091;184;920606;-62
2021/08/09 11:35:45;;;;;;;3.00;1.60;;;;;;;;;;754041;183;916631;-63
2021/08/09 11:38:11;;;;;;;3.30;1.43;;;;;;;;;;758516;181;916362;-62
2021/08/09 11:40:37;;;;;;;3.03;1.50;;;;;;;;;;755856;183;916550;-62
2021/08/09 11:43:03;;;;;;;4.40;1.63;;;;;;;;;;754817;184;906299;-62
2021/08/09 11:45:28;;;;;;;3.37;1.90;;;;;;;;;;759349;183;1011985;-61
2021/08/09 11:47:54;;;;;;;3.93;1.40;;;;;;;;;;758258;183;919463;-63
2021/08/09 11:50:20;;;;;;;3.10;1.77;;;;;;;;;;755872;183;919088;-62
2021/08/09 11:52:46;;;;;;;3.20;1.70;;;;;;;;;;754353;184;920213;-60
2021/08/09 11:55:12;;;;;;;2.70;1.50;;;;;;;;;;756123;183;909033;-62
2021/08/09 11:57:38;;;;;;;2.50;1.60;;;;;;;;;;754569;182;918158;-62
2021/08/09 12:00:05;;;;;;;2.60;1.77;;;;;;;;;;755801;183;917659;-62
2021/08/09 12:02:30;;;;;;;5.97;1.43;;;;;;;;;;759486;182;1003342;-63
2021/08/09 12:04:55;;;;;;;2.63;1.53;;;;;;;;;;752208;184;919739;-64
2021/08/09 12:07:21;;;;;;;2.70;1.53;;;;;;;;;;753644;183;923285;-63
2021/08/09 12:09:47;;;;;;;2.50;1.83;;;;;;;;;;760431;183;919440;-65
2021/08/09 12:12:14;;;;;;;2.80;1.67;;;;;;;;;;755827;183;919668;-62
2021/08/09 12:14:40;;;;;;;3.20;1.87;;;;;;;;;;757553;181;918269;-61
2021/08/09 12:17:11;;;;;;;3.50;1.90;;;;;;;;;;754242;183;918022;-63
2021/08/09 12:19:38;;;;;;;2.77;1.83;;;;;;;;;;753099;181;915167;-63
2021/08/09 12:22:07;;;;;;;3.80;1.50;;;;;;;;;;753637;181;915484;-63
2021/08/09 12:24:32;;;;;;;4.15;1.80;;;;;;;;;;753140;182;919607;-63
2021/08/09 12:26:58;;;;;;;3.90;1.43;;;;;;;;;;759434;184;921908;-62
2021/08/09 12:29:24;;;;;;;4.20;1.83;;;;;;;;;;751795;184;918573;-63
2021/08/09 12:31:50;;;;;;;4.17;1.53;;;;;;;;;;752717;181;920778;-63
2021/08/09 12:34:17;;;;;;;3.10;1.80;;;;;;;;;;755394;184;919307;-63
2021/08/09 12:36:43;;;;;;;2.83;1.80;;;;;;;;;;760080;184;919007;-62
2021/08/09 12:39:08;;;;;;;3.43;1.70;;;;;;;;;;753619;182;1030065;-63
2021/08/09 12:41:34;;;;;;;4.27;1.90;;;;;;;;;;753480;181;916191;-62
2021/08/09 12:44:02;;;;;;;2.50;1.67;;;;;;;;;;760582;184;917151;-63
2021/08/09 12:46:26;;;;;;;3.77;1.70;;;;;;;;;;756120;184;914574;-62
2021/08/09 12:48:52;;;;;;;6.07;1.80;;;;;;;;;;755858;184;920182;-62
2021/08/09 12:51:18;;;;;;;2.80;1.80;;;;;;;;;;759593;181;915807;-61
2021/08/09 12:53:43;;;;;;;3.50;1.97;;;;;;;;;;752327;184;916374;-61
2021/08/09 12:56:09;;;;;;;4.75;2.28;;;;;;;;;;755030;183;917287;-63
2021/08/09 12:58:35;;;;;;;2.40;1.50;;;;;;;;;;755705;182;918521;-62
2021/08/09 13:01:01;;;;;;;6.73;2.27;;;;;;;;;;763162;184;913989;-62
2021/08/09 13:03:28;;;;;;;3.33;1.83;;;;;;;;;;755494;183;919238;-60
2021/08/09 13:05:53;;;;;;;3.80;1.83;;;;;;;;;;754200;183;919885;-63
2021/08/09 13:08:18;;;;;;;5.53;1.47;;;;;;;;;;760195;183;920447;-62
2021/08/09 13:10:44;;;;;;;4.00;1.70;;;;;;;;;;755067;183;919432;-62
2021/08/09 13:13:10;;;;;;;4.17;1.77;;;;;;;;;;754909;183;918804;-61
2021/08/09 13:15:39;;;;;;;4.43;1.77;;;;;;;;;;759210;183;919184;-62
2021/08/09 13:18:05;;;;;;;4.73;1.97;;;;;;;;;;753814;183;919914;-63
2021/08/09 13:20:30;;;;;;;3.60;1.90;;;;;;;;;;755013;183;923222;-63
2021/08/09 13:22:56;;;;;;;2.93;1.80;;;;;;;;;;755375;183;919079;-63
2021/08/09 13:25:22;;;;;;;6.68;1.92;;;;;;;;;;758995;184;919187;-63
2021/08/09 13:27:48;;;;;;;6.30;1.97;;;;;;;;;;754728;183;918879;-62
2021/08/09 13:30:14;;;;;;;5.00;1.90;;;;;;;;;;754376;184;936922;-62
2021/08/09 13:32:40;;;;;;;5.50;1.63;;;;;;;;;;759207;184;919932;-62
2021/08/09 13:35:05;;;;;;;3.77;1.93;;;;;;;;;;753793;184;944710;-63
2021/08/09 13:37:31;;;;;;;7.25;1.65;;;;;;;;;;754160;184;919443;-63
2021/08/09 13:39:58;;;;;;;7.20;1.90;;;;;;;;;;758986;184;919019;-66
2021/08/09 13:42:24;;;;;;;5.23;2.10;;;;;;;;;;742101;184;919286;-63
2021/08/09 13:44:50;;;;;;;2.60;1.47;;;;;;;;;;752574;184;918906;-62
2021/08/09 13:47:16;;;;;;;2.53;1.47;;;;;;;;;;753939;181;918058;-63
2021/08/09 13:49:41;;;;;;;2.10;1.33;;;;;;;;;;760834;183;918890;-64
2021/08/09 13:52:07;;;;;;;3.53;1.70;;;;;;;;;;755774;183;918948;-63
2021/08/09 13:54:33;;;;;;;8.73;2.10;;;;;;;;;;754085;184;919985;-64
2021/08/09 13:56:59;;;;;;;4.47;2.07;;;;;;;;;;759067;184;919865;-64
2021/08/09 13:59:25;;;;;;;2.87;1.70;;;;;;;;;;754235;184;919513;-64
2021/08/09 14:01:50;;;;;;;3.47;1.70;;;;;;;;;;755015;184;919774;-65
2021/08/09 14:04:16;;;;;;;4.07;1.90;;;;;;;;;;758383;184;920083;-64
2021/08/09 14:06:42;;;;;;;2.50;1.70;;;;;;;;;;753389;184;919534;-64
2021/08/09 14:09:08;;;;;;;2.60;1.60;;;;;;;;;;755613;181;944705;-64
2021/08/09 14:11:34;;;;;;;4.07;1.97;;;;;;;;;;759096;181;919506;-62
2021/08/09 14:14:00;;;;;;;4.27;1.63;;;;;;;;;;755604;183;918799;-64